Nearby METAR Reports

 

CYYJ - Victoria Intl Ar, British Columbia, Canada
Distance from station: N 6km
Updated: 27/06/2019 03:17
Light rain, Overcast
Light rain, Overcast
 Wind from NE
Wind: NE 7 km/h
Temperature: 14°C
Dew Point: 12°C
Humidity: 88%
Barometer: 1011.5 hPa
Summary: Light rain
Clouds: Overcast
Visibility: 24 km
Cloud details: Few Clouds 457 m
Partly cloudy 1829 m
Overcast 2591 m
2019/06/27 10:17 CYYJ 271017Z 05004KT 15SM -RA FEW015 SCT060 OVC085 14/12 A2987 RMK SC1SC3AC5 SC TR SLP115
CWKH - Malahat (autob), British Columbia, Canada
Distance from station: WSW 10km
Updated: 27/06/2019 03:00

 
Temperature: 14°C
Dew Point: 9°C
Humidity: 72%
2019/06/27 10:00 CWKH 271000Z AUTO 14/09 RMK AO1 SLP104 T01380094 57004
 
CWPF - Esquimalt Metoc, British Columbia, Canada
Distance from station: S 18km
Updated: 27/06/2019 03:30

 Wind from SSW
Wind: SSW 11 km/h
Temperature: 15°C
Dew Point: 10°C
Humidity: 72%
2019/06/27 10:30 CWPF 271030Z AUTO 21006KT 15/10 RMK AO1 SLP115 T01480103 56001
CWYJ - Victoria Univ, British Columbia, Canada
Distance from station: SSE 18km
Updated: 27/06/2019 03:00

 Wind from WSW
Wind: WSW 6 km/h
Temperature: 14°C
Dew Point: 10°C
Humidity: 77%
2019/06/27 10:00 CWYJ 271000Z AUTO 25003KT 14/10 RMK AO1 SLP116 T01440095 55003
 
CYWH - Victoria Harbour, British Columbia, Canada
Distance from station: S 20km
Updated: 26/06/2019 21:00
NOT Current
Mostly cloudy
Mostly cloudy
 Wind from SW
Wind: SW 15 km/h
Temperature: 15°C
Dew Point: 10°C
Humidity: 72%
Barometer: 1011.5 hPa
Clouds: Mostly cloudy
Visibility: 24 km
Cloud details: Few Clouds 762 m
Partly cloudy 3048 m
Mostly cloudy 5182 m
2019/06/27 04:00 CYWH 270400Z 22008KT 15SM FEW025 SCT100 BKN170 15/10 A2987 RMK SC1AC3AC3 LAST STFD OBS/NEXT 271300Z SLP116 DENSITY ALT 100FT
CWLM - Victoria (autob), British Columbia, Canada
Distance from station: SSE 21km
Updated: 27/06/2019 03:00

 Wind from WSW
Wind: WSW 24 km/h
Temperature: 14°C
Dew Point: 11°C
Humidity: 82%
2019/06/27 10:00 CWLM 271000Z AUTO 25013KT 14/11 RMK AO1 PK WND 23018/0917 SLP116 T01350107 56006
 
KFHR - Friday Harbor, Washington, USA
Distance from station: ESE 30km
Updated: 27/06/2019 02:53
Light rain, Overcast
Light rain, Overcast
 Wind from S
Wind: S 11 km/h
Temperature: 13°C
Dew Point: 11°C
Humidity: 88%
Barometer: 1012.5 hPa
Summary: Light rain
Clouds: Overcast
Visibility: 13 km
Cloud details: Mostly cloudy 1433 m
Overcast 1676 m
2019/06/27 09:53 KFHR 270953Z AUTO 18006KT 8SM -RA BKN047 OVC055 13/11 A2990 RMK AO2 RAB25 SLP125 P0000 T01280106
CWQK - Race Rocks Autob, British Columbia, Canada
Distance from station: SSW 34km
Updated: 27/06/2019 03:00

 Wind from W
Wind: W 37 km/h
Temperature: 13°C
Dew Point: 11°C
Humidity: 88%
2019/06/27 10:00 CWQK 271000Z AUTO 27020KT 13/11 RMK AO1 PK WND 27021/0900 SLP117 T01250108 57003
 
CWEZ - Saturna Isl (map, British Columbia, Canada
Distance from station: NE 35km
Updated: 27/06/2019 03:00

 
Temperature: 13°C
Dew Point: 12°C
Humidity: 94%
2019/06/27 10:00 CWEZ 271000Z AUTO 13/12 RMK AO1 4PAST HR 8006 SLP110 P0005 T01270116 50014
KORS - Eastsound/Orcas, Washington, USA
Distance from station: ENE 39km
Updated: 27/06/2019 03:35
Rain, Overcast
Rain, Overcast
 Wind from SSE
Wind: SSE 20 km/h
Temperature: 14°C
Dew Point: 12°C
Humidity: 88%
Barometer: 1011.9 hPa
Summary: Rain
Clouds: Overcast
Visibility: 6 km
Cloud details: Partly cloudy 1067 m
Partly cloudy 1676 m
Overcast 1981 m
2019/06/27 10:35 KORS 271035Z AUTO 16011KT 4SM RA SCT035 SCT055 OVC065 14/12 A2988 RMK AO2
 
CWSP - Sheringham Autob, British Columbia, Canada
Distance from station: WSW 43km
Updated: 27/06/2019 03:00

 Wind from WNW
Wind: WNW 19 km/h, Gust: 31 km/h
Temperature: 13°C
2019/06/27 10:00 CWSP 271000Z AUTO 30010G17KT 13/ RMK AO1 4PAST HR 6004 PK WND 29017/0907 SLP125 P0002 T0129 50004